Data for 11/24/2017

Time Sea-Level Adjusted Pressure Absolute Pressure Temperature Relative Humidity Dew Point   
(mb) (inHg) (mb) (inHg) (C) (F) (%) (C) (F)
00:05 1009 29.8 838 24.75 7.8 46.1 78 4.2 39.6
00:10 1009 29.8 839 24.78 7.3 45.1 80 4.2 39.5
00:15 1010 29.83 839 24.78 7.1 44.7 82 4.1 39.4
00:20 1010 29.83 839 24.78 7 44.5 82 4.1 39.3
00:25 1010 29.83 839 24.78 7 44.7 81 4 39.2
00:30 1010 29.83 839 24.78 7.2 45 79 3.8 38.9
00:35 1010 29.83 839 24.78 7.3 45.2 79 3.9 39.1
00:40 1010 29.83 840 24.81 7.4 45.3 80 4.2 39.6
00:45 1010 29.83 840 24.81 7.2 45 81 4.1 39.4
00:50 1010 29.83 839 24.78 7.2 45 78 3.6 38.5
00:55 1010 29.83 840 24.81 7.2 44.9 80 4 39.1
01:00 1010 29.83 839 24.78 7.1 44.8 78 3.5 38.2
01:05 1010 29.83 839 24.78 7.2 44.9 77 3.4 38.2
01:10 1010 29.83 839 24.78 7.3 45.1 77 3.5 38.2
01:15 1010 29.83 839 24.78 7.2 45 78 3.6 38.5
01:20 1010 29.83 840 24.81 7.2 44.9 77 3.4 38.1
01:25 1010 29.83 840 24.81 7.3 45.1 77 3.5 38.2
01:30 1010 29.83 840 24.81 7.3 45.2 75 3.1 37.7
01:35 1010 29.83 840 24.81 7.6 45.6 73 3 37.4
01:40 1011 29.85 840 24.81 7.7 45.8 73 3.1 37.6
01:45 1011 29.85 840 24.81 7.7 45.9 74 3.4 38.1
01:50 1011 29.85 840 24.81 7.6 45.6 75 3.4 38.2
01:55 1011 29.85 840 24.81 7.3 45.2 76 3.4 38
02:00 1011 29.85 840 24.81 7.1 44.9 77 3.3 38
02:05 1011 29.85 840 24.81 7 44.5 76 3 37.4
02:10 1011 29.85 840 24.81 6.9 44.4 75 2.8 37.1
02:15 1011 29.85 840 24.81 6.8 44.2 75 2.8 37
02:20 1011 29.85 840 24.81 6.7 44.1 75 2.5 36.5
02:25 1011 29.85 840 24.81 6.8 44.2 73 2.3 36.2
02:30 1011 29.85 841 24.83 6.9 44.5 72 2.2 36
02:35 1012 29.88 841 24.83 7 44.6 72 2.4 36.3
02:40 1011 29.85 841 24.83 6.9 44.4 73 2.3 36.2
02:45 1012 29.88 841 24.83 6.8 44.2 72 2.2 36
02:50 1012 29.88 841 24.83 6.8 44.2 72 2.1 35.7
02:55 1012 29.88 841 24.83 6.9 44.4 71 2 35.5
03:00 1012 29.88 841 24.83 6.9 44.5 71 2 35.7
03:05 1012 29.88 841 24.83 6.9 44.4 70 1.9 35.4
03:10 1012 29.88 841 24.83 6.9 44.5 71 2 35.6
03:15 1012 29.88 841 24.83 6.8 44.2 72 2 35.7
03:20 1012 29.88 841 24.83 6.6 43.9 71 1.8 35.2
03:25 1012 29.88 841 24.83 6.8 44.2 68 1.2 34.2
03:30 1012 29.88 841 24.83 6.9 44.5 66 1 33.7
03:35 1012 29.88 841 24.83 7.1 44.8 61 0 32
03:40 1012 29.88 841 24.83 7.3 45.1 60 0.1 32.2
03:45 1012 29.88 841 24.83 7.1 44.8 60 -0 32
03:50 1012 29.88 841 24.83 6.8 44.3 61 -0.1 31.8
03:55 1012 29.88 841 24.83 6.6 43.9 61 -0.2 31.6
04:00 1012 29.88 842 24.86 6.6 43.8 66 0.7 33.3
04:05 1013 29.91 842 24.86 6.2 43.1 71 1.4 34.5
04:10 1013 29.91 842 24.86 5.6 42.1 75 1.6 34.9
04:15 1013 29.91 842 24.86 5.2 41.4 73 0.8 33.4
04:20 1013 29.91 842 24.86 5.4 41.6 72 0.7 33.2
04:25 1013 29.91 842 24.86 5.3 41.5 72 0.6 33
04:30 1013 29.91 843 24.89 5.3 41.5 72 0.5 33
04:35 1013 29.91 843 24.89 5.2 41.4 69 -0 31.9
04:40 1014 29.94 843 24.89 5.4 41.8 67 -0.2 31.6
04:45 1014 29.94 843 24.89 5.6 42.2 63 -0.8 30.5
04:50 1014 29.94 843 24.89 5.8 42.5 60 -1.4 29.4
04:55 1014 29.94 843 24.89 6 42.8 56 -2.2 28
05:00 1014 29.94 843 24.89 6.1 43 57 -1.7 29
05:05 1014 29.94 843 24.89 5.9 42.7 58 -1.6 29
05:10 1014 29.94 843 24.89 5.6 42 60 -1.6 29.2
05:15 1014 29.94 843 24.89 5.1 41.3 61 -1.7 28.9
05:20 1014 29.94 843 24.89 5 41.1 61 -1.9 28.6
05:25 1014 29.94 843 24.89 5 41 60 -2.2 28.1
05:30 1014 29.94 844 24.92 5.1 41.1 59 -2.3 27.8
05:35 1014 29.94 844 24.92 5.1 41.2 58 -2.4 27.7
05:40 1014 29.94 844 24.92 5.1 41.2 59 -2.3 27.9
05:45 1015 29.97 844 24.92 5.1 41.2 57 -2.6 27.3
05:50 1015 29.97 844 24.92 5.1 41.3 57 -2.6 27.4
05:55 1015 29.97 844 24.92 5.1 41.1 58 -2.5 27.5
06:00 1015 29.97 844 24.92 5 40.9 59 -2.3 27.8
06:05 1015 29.97 844 24.92 4.7 40.4 63 -1.8 28.7
06:10 1015 29.97 844 24.92 4.2 39.5 65 -1.8 28.8
06:15 1015 29.97 844 24.92 4 39.3 65 -1.9 28.6
06:20 1015 29.97 844 24.92 4.1 39.4 64 -2 28.3
06:25 1015 29.97 844 24.92 4.1 39.4 63 -2.2 28.1
06:30 1014 29.94 844 24.92 4.3 39.7 62 -2.3 27.9
06:35 1014 29.94 844 24.92 4.3 39.7 61 -2.6 27.4
06:40 1014 29.94 844 24.92 4.2 39.6 62 -2.5 27.5
06:45 1014 29.94 843 24.89 4.2 39.6 60 -2.9 26.8
06:50 1014 29.94 843 24.89 4.4 39.9 61 -2.5 27.5
06:55 1014 29.94 844 24.92 4.2 39.6 62 -2.3 27.9
07:00 1014 29.94 844 24.92 4.1 39.4 63 -2.3 27.9
07:05 1014 29.94 844 24.92 4.1 39.4 62 -2.5 27.4
07:10 1014 29.94 844 24.92 4.1 39.5 60 -2.8 26.9
07:15 1014 29.94 844 24.92 4.2 39.5 60 -2.8 26.9
07:20 1015 29.97 844 24.92 4.3 39.7 60 -2.9 26.9
07:25 1015 29.97 844 24.92 4.1 39.3 63 -2.3 27.8
07:30 1015 29.97 844 24.92 3.6 38.5 63 -2.8 26.9
07:35 1015 29.97 844 24.92 3.6 38.5 64 -2.6 27.3
07:40 1015 29.97 844 24.92 3.5 38.3 63 -2.8 26.9
07:45 1015 29.97 844 24.92 3.6 38.5 65 -2.4 27.6
07:50 1015 29.97 844 24.92 3.3 37.9 65 -2.6 27.3
07:55 1015 29.97 844 24.92 3.4 38.1 65 -2.6 27.4
08:00 1015 29.97 844 24.92 3.5 38.3 64 -2.7 27.1
08:05 1015 29.97 844 24.92 3.8 38.8 62 -2.8 26.9
08:10 1015 29.97 844 24.92 3.8 38.8 60 -3.2 26.3
08:15 1015 29.97 845 24.95 4.1 39.5 57 -3.7 25.4
08:20 1015 29.97 845 24.95 4.3 39.8 54 -4.2 24.5
08:25 1015 29.97 844 24.92 4.5 40.2 51 -4.6 23.6
08:30 1015 29.97 845 24.95 4.9 40.8 51 -4.4 24.1
08:35 1015 29.97 845 24.95 5.1 41.1 50 -4.6 23.7
08:40 1015 29.97 845 24.95 5.1 41.2 50 -4.5 23.9
08:45 1015 29.97 845 24.95 5.1 41.2 52 -3.9 25
08:50 1016 30 845 24.95 4.6 40.3 55 -3.6 25.4
08:55 1016 30 845 24.95 4.1 39.5 61 -2.8 27
09:00 1016 30 845 24.95 3.5 38.4 63 -2.8 27
09:05 1016 30 845 24.95 3.4 38.1 59 -3.9 25
09:10 1016 30 845 24.95 4.2 39.5 53 -4.6 23.6
09:15 1016 30 845 24.95 4.7 40.5 51 -4.6 23.7
09:20 1016 30 845 24.95 5.2 41.3 50 -4.4 24
09:25 1016 30 845 24.95 5.3 41.5 51 -4 24.8
09:30 1016 30 845 24.95 5.4 41.8 53 -3.3 26
09:35 1016 30 845 24.95 5.4 41.7 54 -3.1 26.3
09:40 1016 30 845 24.95 5.5 41.9 53 -3.3 26.1
09:45 1016 30 845 24.95 5.6 42.1 52 -3.4 25.9
09:50 1016 30 845 24.95 5.4 41.8 52 -3.6 25.6
09:55 1016 30 845 24.95 5.7 42.2 50 -3.9 25
10:00 1016 30 845 24.95 5.8 42.4 50 -3.9 25
10:05 1016 30 845 24.95 5.6 42.2 49 -4.3 24.3
10:10 1016 30 845 24.95 5.6 42.1 48 -4.6 23.7
10:15 1016 30 845 24.95 5.8 42.5 47 -4.5 23.9
10:20 1016 30 845 24.95 6.3 43.4 45 -4.8 23.4
10:25 1016 30 845 24.95 6.7 44.1 44 -4.7 23.5
10:30 1016 30 845 24.95 7 44.6 44 -4.4 24
10:35 1016 30 845 24.95 7.1 44.8 43 -4.7 23.6
10:40 1016 30 845 24.95 7.3 45.2 43 -4.4 24
10:45 1016 30 845 24.95 7.4 45.4 43 -4.4 24
10:50 1016 30 845 24.95 7.4 45.2 41 -4.9 23.2
10:55 1016 30 845 24.95 7.6 45.7 38 -5.7 21.7
11:00 1016 30 845 24.95 7.8 46 39 -5.5 22.1
11:05 1016 30 845 24.95 7.8 46.1 39 -5.3 22.5
11:10 1016 30 845 24.95 8.1 46.5 36 -6 21.3
11:15 1016 30 845 24.95 8.1 46.5 36 -6.2 20.8
11:20 1016 30 845 24.95 8 46.5 37 -5.9 21.4
11:25 1016 30 845 24.95 8.3 47 35 -6.4 20.4
11:30 1016 30 846 24.98 8.3 46.9 36 -5.8 21.6
11:35 1016 30 845 24.95 8.3 46.9 34 -6.6 20.1
11:40 1016 30 845 24.95 8.2 46.8 34 -6.8 19.8
11:45 1016 30 845 24.95 8.2 46.7 34 -6.7 20
11:50 1016 30 845 24.95 8.2 46.8 34 -6.8 19.8
11:55 1016 30 845 24.95 8 46.4 34 -6.9 19.6
12:00 1016 30 845 24.95 8.3 46.9 33 -6.9 19.5
12:05 1016 30 845 24.95 8.1 46.6 35 -6.3 20.7
12:10 1016 30 845 24.95 8.2 46.8 34 -6.9 19.7
12:15 1016 30 845 24.95 8.1 46.6 35 -6.4 20.5
12:20 1016 30 845 24.95 8.6 47.4 33 -6.7 20
12:25 1016 30 845 24.95 9 48.1 33 -6.4 20.5
12:30 1016 30 845 24.95 9.3 48.7 32 -6.4 20.5
12:35 1016 30 845 24.95 8.7 47.7 36 -5.6 22
12:40 1016 30 845 24.95 8.6 47.4 37 -5.3 22.5
12:45 1016 30 845 24.95 7.9 46.1 36 -6.2 20.9
12:50 1016 30 845 24.95 8.4 47 37 -5.6 21.9
12:55 1016 30 845 24.95 8.5 47.3 36 -5.7 21.8
13:00 1016 30 845 24.95 9 48.1 35 -5.7 21.7
13:05 1016 30 845 24.95 8.9 48 35 -5.9 21.4
13:10 1016 30 845 24.95 8.6 47.5 36 -5.6 21.9
13:15 1016 30 845 24.95 8.2 46.8 36 -6.1 21
13:20 1016 30 845 24.95 8.6 47.5 36 -5.8 21.6
13:25 1016 30 845 24.95 8.7 47.6 35 -6 21.2
13:30 1016 30 845 24.95 8.9 48 35 -5.6 21.9
13:35 1016 30 845 24.95 9.1 48.3 34 -5.9 21.4
13:40 1016 30 846 24.98 8.9 48 34 -6.2 20.8
13:45 1016 30 845 24.95 9.1 48.4 35 -5.6 22
13:50 1016 30 845 24.95 8.7 47.7 36 -5.5 22
13:55 1016 30 845 24.95 8.6 47.4 37 -5.4 22.3
14:00 1016 30 845 24.95 8.6 47.5 36 -5.8 21.6
14:05 1016 30 845 24.95 9.3 48.7 35 -5.5 22.2
14:10 1016 30 846 24.98 9.5 49 35 -5.2 22.6
14:15 1016 30 846 24.98 9.7 49.4 33 -5.7 21.8
14:20 1017 30.03 846 24.98 9.4 48.9 35 -5.1 22.8
14:25 1016 30 846 24.98 8.1 46.5 37 -5.8 21.6
14:30 1016 30 846 24.98 8.7 47.7 34 -6.4 20.5
14:35 1016 30 846 24.98 9.3 48.8 33 -6 21.1
14:40 1016 30 846 24.98 8.6 47.5 34 -6.3 20.7
14:45 1016 30 846 24.98 9.5 49 34 -5.7 21.7
14:50 1016 30 846 24.98 10.1 50.1 29 -7 19.4
14:55 1016 30 846 24.98 10.2 50.3 26 -8.3 17.1
15:00 1016 30 846 24.98 10.2 50.3 26 -8.5 16.6
15:05 1016 30 846 24.98 10.2 50.4 26 -8.6 16.5
15:10 1016 30 846 24.98 10.3 50.5 25 -9 15.9
15:15 1016 30 846 24.98 10.2 50.3 24 -9.3 15.3
15:20 1017 30.03 846 24.98 10.1 50.1 25 -9.3 15.3
15:25 1017 30.03 846 24.98 10 50 25 -9.2 15.5
15:30 1017 30.03 846 24.98 10 49.9 26 -8.5 16.7
15:35 1017 30.03 846 24.98 10 49.9 27 -8.4 16.9
15:40 1017 30.03 846 24.98 9.8 49.6 28 -7.9 17.8
15:45 1017 30.03 846 24.98 9.7 49.4 31 -6.6 20.2
15:50 1017 30.03 847 25.01 9.3 48.8 30 -7.3 18.8
15:55 1017 30.03 847 25.01 9.3 48.8 30 -7.6 18.3
16:00 1017 30.03 846 24.98 9 48.2 27 -9.2 15.5
16:05 1017 30.03 846 24.98 8.7 47.6 26 -10 14
16:10 1017 30.03 846 24.98 8.5 47.3 24 -10.8 12.6
16:15 1017 30.03 846 24.98 8.5 47.3 24 -11 12.1
16:20 1017 30.03 847 25.01 8.3 47 25 -10.8 12.6
16:25 1017 30.03 847 25.01 8.1 46.6 25 -10.7 12.7
16:30 1017 30.03 847 25.01 7.9 46.2 26 -10.5 13.1
16:35 1017 30.03 847 25.01 7.7 45.8 27 -10.1 13.8
16:40 1017 30.03 847 25.01 7.3 45.2 26 -10.8 12.6
16:45 1017 30.03 847 25.01 7 44.6 26 -11.2 11.9
16:50 1017 30.03 847 25.01 6.8 44.3 26 -11.4 11.4
16:55 1017 30.03 847 25.01 6.8 44.2 26 -11.4 11.4
17:00 1017 30.03 847 25.01 6.7 44.1 26 -11.4 11.4
17:05 1017 30.03 847 25.01 6.6 43.9 29 -10.1 13.7
17:10 1018 30.06 847 25.01 6.2 43.2 30 -10.2 13.6
17:15 1018 30.06 847 25.01 6 42.7 30 -10.3 13.4
17:20 1018 30.06 847 25.01 6 42.7 30 -10.4 13.3
17:25 1017 30.03 847 25.01 5.9 42.6 30 -10.3 13.5
17:30 1018 30.06 847 25.01 5.8 42.4 31 -10.3 13.5
17:35 1018 30.06 847 25.01 5.6 42 31 -10.1 13.8
17:40 1018 30.06 847 25.01 5.4 41.7 32 -9.9 14.2
17:45 1018 30.06 847 25.01 5.2 41.3 33 -9.7 14.5
17:50 1018 30.06 847 25.01 5.1 41.1 33 -9.8 14.3
17:55 1018 30.06 847 25.01 5 41 35 -9.4 15.1
18:00 1018 30.06 847 25.01 4.7 40.5 35 -9.3 15.2
18:05 1018 30.06 847 25.01 4.6 40.3 35 -9.7 14.6
18:10 1018 30.06 847 25.01 4.6 40.3 35 -9.6 14.7
18:15 1018 30.06 847 25.01 4.6 40.2 35 -9.7 14.6
18:20 1018 30.06 847 25.01 4.6 40.2 35 -9.5 15
18:25 1018 30.06 847 25.01 4.5 40.1 36 -9.4 15.1
18:30 1018 30.06 847 25.01 4.3 39.8 36 -9.4 15
18:35 1018 30.06 847 25.01 4.3 39.8 36 -9.4 15.2
18:40 1018 30.06 847 25.01 4.3 39.8 37 -9.1 15.7
18:45 1018 30.06 847 25.01 4.3 39.7 38 -8.9 15.9
18:50 1018 30.06 847 25.01 4 39.2 38 -9.2 15.5
18:55 1018 30.06 847 25.01 3.9 39 39 -8.8 16.1
19:00 1018 30.06 847 25.01 3.5 38.4 39 -9.3 15.3
19:05 1018 30.06 847 25.01 3.7 38.7 38 -9.4 15.2
19:10 1018 30.06 847 25.01 4 39.2 37 -9.3 15.3
19:15 1018 30.06 847 25.01 4 39.3 38 -9.2 15.4
19:20 1018 30.06 847 25.01 4.1 39.4 39 -8.6 16.5
19:25 1018 30.06 847 25.01 3.6 38.6 48 -6.4 20.6
19:30 1018 30.06 847 25.01 2.2 35.9 52 -6.7 20
19:35 1018 30.06 847 25.01 1.8 35.2 52 -7.1 19.2
19:40 1018 30.06 848 25.04 2.4 36.3 46 -8.1 17.5
19:45 1018 30.06 848 25.04 2.7 36.9 50 -6.7 19.9
19:50 1018 30.06 848 25.04 2.3 36.2 51 -6.9 19.6
19:55 1018 30.06 848 25.04 1.7 35.1 53 -7 19.4
20:00 1019 30.09 848 25.04 1.6 34.9 53 -7.1 19.3
20:05 1019 30.09 848 25.04 1.7 35 51 -7.4 18.6
20:10 1019 30.09 848 25.04 1.6 34.8 52 -7.4 18.7
20:15 1018 30.06 848 25.04 1.6 34.8 51 -7.5 18.4
20:20 1018 30.06 848 25.04 1.7 35.1 50 -7.6 18.2
20:25 1018 30.06 848 25.04 1.5 34.6 51 -7.5 18.4
20:30 1019 30.09 848 25.04 1 33.8 54 -7.3 18.9
20:35 1019 30.09 848 25.04 0.4 32.7 55 -7.6 18.2
20:40 1019 30.09 848 25.04 0.6 33 52 -8.2 17.3
20:45 1019 30.09 848 25.04 0.8 33.4 53 -7.8 17.9
20:50 1019 30.09 848 25.04 0.7 33.2 53 -7.9 17.8
20:55 1019 30.09 848 25.04 0.4 32.6 52 -8.4 16.9
21:00 1019 30.09 848 25.04 0.7 33.3 50 -8.4 16.8
21:05 1019 30.09 848 25.04 1 33.8 48 -8.9 15.9
21:10 1019 30.09 848 25.04 1.4 34.6 47 -8.8 16.2
21:15 1019 30.09 848 25.04 1.7 35 46 -8.7 16.3
21:20 1019 30.09 848 25.04 1.6 35 53 -7 19.3
21:25 1019 30.09 848 25.04 1.3 34.4 51 -7.7 18.2
21:30 1019 30.09 848 25.04 1.1 34 51 -8.1 17.5
21:35 1019 30.09 848 25.04 0.8 33.4 47 -9.3 15.3
21:40 1019 30.09 848 25.04 1.2 34.1 47 -8.8 16.1
21:45 1019 30.09 848 25.04 1.3 34.4 48 -8.4 16.8
21:50 1019 30.09 848 25.04 1.3 34.4 52 -7.5 18.5
21:55 1019 30.09 849 25.07 1.3 34.3 54 -7 19.4
22:00 1019 30.09 849 25.07 1.1 33.9 54 -7.2 19.1
22:05 1019 30.09 849 25.07 1.1 34.1 57 -6.5 20.4
22:10 1019 30.09 849 25.07 1 33.7 58 -6.3 20.6
22:15 1019 30.09 849 25.07 0.8 33.4 59 -6.4 20.5
22:20 1020 30.12 849 25.07 0.7 33.2 59 -6.4 20.4
22:25 1020 30.12 849 25.07 0.8 33.4 57 -6.7 19.9
22:30 1020 30.12 849 25.07 1.1 34.1 56 -6.6 20.1
22:35 1020 30.12 849 25.07 0.9 33.7 58 -6.4 20.4
22:40 1020 30.12 849 25.07 0.6 33.1 59 -6.5 20.3
22:45 1020 30.12 849 25.07 0.7 33.3 59 -6.3 20.6
22:50 1020 30.12 849 25.07 1 33.7 57 -6.6 20.1
22:55 1020 30.12 849 25.07 1.2 34.1 54 -7.2 19.1
23:00 1020 30.12 849 25.07 1.1 34 53 -7.4 18.8
23:05 1020 30.12 849 25.07 1.1 34 57 -6.5 20.3
23:10 1020 30.12 849 25.07 0.8 33.4 59 -6.3 20.7
23:15 1020 30.12 849 25.07 0.5 33 59 -6.6 20.1
23:20 1020 30.12 849 25.07 0.8 33.4 59 -6.2 20.8
23:25 1020 30.12 849 25.07 0.7 33.3 58 -6.7 20
23:30 1020 30.12 849 25.07 0.6 33.1 59 -6.6 20.1
23:35 1020 30.12 849 25.07 0.6 33.1 57 -6.9 19.5
23:40 1020 30.12 849 25.07 0.6 33.1 58 -6.8 19.7
23:45 1020 30.12 849 25.07 0.5 32.8 58 -6.9 19.5
23:50 1020 30.12 850 25.1 0.3 32.6 57 -7.2 19.1
23:55 1020 30.12 850 25.1 0.4 32.8 55 -7.7 18.1
24:00 1020 30.12 850 25.1 0.5 32.9 55 -7.6 18.4